KACK/ACK METAR and TAF weather

Enter ICAO airport designator
Station Type Date Time Source
KACK METAR 2021/09/19 14:53 UTC NOAA

KACK 191453Z 36018G23KT 10SM CLR 22/14 A3010 RMK AO2 PK WND 01026/1423 SLP192 T02170139 53016


Station Type Date Time Source
KACK Decoded METAR 2021/09/19 14:53 UTC NOAA

NANTUCKET MEMORIAL AIRPORT, MA, United States (KACK) 41-15N 70-04W 16M
Sep 19, 2021 - 10:53 AM EDT / 2021.09.19 1453 UTC
Wind: from the N (360 degrees) at 21 MPH (18 KT) gusting to 26 MPH (23 KT):0
Visibility: 10 mile(s):0
Sky conditions: clear
Temperature: 71.1 F (21.7 C)
Dew Point: 57.0 F (13.9 C)
Relative Humidity: 61%
Pressure (altimeter): 30.1 in. Hg (1019 hPa)
Pressure tendency: 0.05 inches (1.6 hPa) higher than three hours ago
ob: KACK 191453Z 36018G23KT 10SM CLR 22/14 A3010 RMK AO2 PK WND 01026/1423 SLP192 T02170139 53016
cycle: 15

Station Type Date Time Source
KACK TAF 2021/09/19 15:06 UTC NOAA

TAF
AMD KACK 191503Z 1915/2012 36014G23KT P6SM SKC
FM192100 03015KT P6SM SKC
FM200000 03007KT P6SM SKC

Example: see airport list